sensor_id;sensor_type;location;lat;lon;timestamp;P1;durP1;ratioP1;P2;durP2;ratioP2
73693;SDS011;61997;53.974;11.670;2023-02-28T00:01:13;12.25;;;7.32;;
73693;SDS011;61997;53.974;11.670;2023-02-28T00:03:39;12.18;;;7.38;;
73693;SDS011;61997;53.974;11.670;2023-02-28T00:06:07;13.18;;;7.78;;
73693;SDS011;61997;53.974;11.670;2023-02-28T00:08:34;13.07;;;7.57;;
73693;SDS011;61997;53.974;11.670;2023-02-28T00:11:00;14.07;;;7.35;;
73693;SDS011;61997;53.974;11.670;2023-02-28T00:13:30;13.27;;;7.82;;
73693;SDS011;61997;53.974;11.670;2023-02-28T00:16:03;10.80;;;6.97;;
73693;SDS011;61997;53.974;11.670;2023-02-28T00:18:30;11.57;;;7.35;;
73693;SDS011;61997;53.974;11.670;2023-02-28T00:20:55;13.75;;;7.57;;
73693;SDS011;61997;53.974;11.670;2023-02-28T00:23:21;13.05;;;7.85;;
73693;SDS011;61997;53.974;11.670;2023-02-28T00:25:46;13.07;;;6.82;;
73693;SDS011;61997;53.974;11.670;2023-02-28T00:28:13;13.90;;;7.97;;
73693;SDS011;61997;53.974;11.670;2023-02-28T00:30:38;12.65;;;6.88;;
73693;SDS011;61997;53.974;11.670;2023-02-28T00:33:03;15.60;;;7.47;;
73693;SDS011;61997;53.974;11.670;2023-02-28T00:35:29;12.30;;;7.72;;
73693;SDS011;61997;53.974;11.670;2023-02-28T00:37:54;12.60;;;8.55;;
73693;SDS011;61997;53.974;11.670;2023-02-28T00:40:19;15.43;;;8.00;;
73693;SDS011;61997;53.974;11.670;2023-02-28T00:42:45;11.43;;;6.85;;
73693;SDS011;61997;53.974;11.670;2023-02-28T00:45:10;11.55;;;6.78;;
73693;SDS011;61997;53.974;11.670;2023-02-28T00:47:36;13.15;;;7.88;;
73693;SDS011;61997;53.974;11.670;2023-02-28T00:50:01;13.02;;;6.72;;
73693;SDS011;61997;53.974;11.670;2023-02-28T00:52:27;11.77;;;6.80;;
73693;SDS011;61997;53.974;11.670;2023-02-28T00:54:53;12.20;;;6.72;;
73693;SDS011;61997;53.974;11.670;2023-02-28T00:57:18;14.43;;;6.97;;
73693;SDS011;61997;53.974;11.670;2023-02-28T00:59:43;12.10;;;7.78;;
73693;SDS011;61997;53.974;11.670;2023-02-28T01:02:09;12.63;;;7.20;;
73693;SDS011;61997;53.974;11.670;2023-02-28T01:04:34;12.65;;;7.43;;
73693;SDS011;61997;53.974;11.670;2023-02-28T01:07:00;13.07;;;7.60;;
73693;SDS011;61997;53.974;11.670;2023-02-28T01:09:25;14.10;;;7.82;;
73693;SDS011;61997;53.974;11.670;2023-02-28T01:11:50;12.25;;;7.40;;
73693;SDS011;61997;53.974;11.670;2023-02-28T01:14:16;10.05;;;6.20;;
73693;SDS011;61997;53.974;11.670;2023-02-28T01:16:43;12.80;;;6.22;;
73693;SDS011;61997;53.974;11.670;2023-02-28T01:19:08;13.52;;;7.25;;
73693;SDS011;61997;53.974;11.670;2023-02-28T01:21:34;11.27;;;7.25;;
73693;SDS011;61997;53.974;11.670;2023-02-28T01:24:00;16.27;;;7.70;;
73693;SDS011;61997;53.974;11.670;2023-02-28T01:26:26;14.30;;;6.88;;
73693;SDS011;61997;53.974;11.670;2023-02-28T01:28:52;12.10;;;6.53;;
73693;SDS011;61997;53.974;11.670;2023-02-28T01:31:18;12.43;;;7.07;;
73693;SDS011;61997;53.974;11.670;2023-02-28T01:33:44;12.23;;;6.80;;
73693;SDS011;61997;53.974;11.670;2023-02-28T01:36:17;11.57;;;6.72;;
73693;SDS011;61997;53.974;11.670;2023-02-28T01:38:46;11.60;;;6.28;;
73693;SDS011;61997;53.974;11.670;2023-02-28T01:41:15;10.43;;;6.28;;
73693;SDS011;61997;53.974;11.670;2023-02-28T01:46:08;13.15;;;7.32;;
73693;SDS011;61997;53.974;11.670;2023-02-28T01:48:35;11.27;;;7.10;;
73693;SDS011;61997;53.974;11.670;2023-02-28T01:51:08;11.73;;;6.60;;
73693;SDS011;61997;53.974;11.670;2023-02-28T01:53:39;11.27;;;6.55;;
73693;SDS011;61997;53.974;11.670;2023-02-28T01:56:10;10.88;;;5.97;;
73693;SDS011;61997;53.974;11.670;2023-02-28T01:58:37;11.80;;;6.05;;
73693;SDS011;61997;53.974;11.670;2023-02-28T02:01:03;9.73;;;5.82;;
73693;SDS011;61997;53.974;11.670;2023-02-28T02:03:29;11.13;;;6.63;;
73693;SDS011;61997;53.974;11.670;2023-02-28T02:05:54;9.93;;;5.63;;
73693;SDS011;61997;53.974;11.670;2023-02-28T02:08:21;9.68;;;6.85;;
73693;SDS011;61997;53.974;11.670;2023-02-28T02:10:50;10.35;;;5.90;;
73693;SDS011;61997;53.974;11.670;2023-02-28T02:48:13;9.23;;;5.13;;
73693;SDS011;61997;53.974;11.670;2023-02-28T02:50:43;8.90;;;5.10;;
73693;SDS011;61997;53.974;11.670;2023-02-28T02:53:11;7.35;;;5.22;;
73693;SDS011;61997;53.974;11.670;2023-02-28T02:55:42;9.40;;;5.30;;
73693;SDS011;61997;53.974;11.670;2023-02-28T02:58:14;10.50;;;5.63;;
73693;SDS011;61997;53.974;11.670;2023-02-28T03:00:46;9.38;;;4.78;;
73693;SDS011;61997;53.974;11.670;2023-02-28T03:03:14;8.70;;;4.75;;
73693;SDS011;61997;53.974;11.670;2023-02-28T03:05:49;10.20;;;5.35;;
73693;SDS011;61997;53.974;11.670;2023-02-28T03:08:15;9.98;;;5.38;;
73693;SDS011;61997;53.974;11.670;2023-02-28T03:13:11;8.45;;;4.55;;
73693;SDS011;61997;53.974;11.670;2023-02-28T03:15:43;10.23;;;5.22;;
73693;SDS011;61997;53.974;11.670;2023-02-28T03:18:15;6.88;;;4.88;;
73693;SDS011;61997;53.974;11.670;2023-02-28T03:20:54;6.82;;;4.78;;
73693;SDS011;61997;53.974;11.670;2023-02-28T03:23:47;7.97;;;4.38;;
73693;SDS011;61997;53.974;11.670;2023-02-28T03:26:18;9.93;;;5.40;;
73693;SDS011;61997;53.974;11.670;2023-02-28T03:31:26;9.68;;;4.60;;
73693;SDS011;61997;53.974;11.670;2023-02-28T03:33:56;10.27;;;4.93;;
73693;SDS011;61997;53.974;11.670;2023-02-28T03:36:30;7.72;;;4.55;;
73693;SDS011;61997;53.974;11.670;2023-02-28T03:39:03;7.15;;;4.25;;
73693;SDS011;61997;53.974;11.670;2023-02-28T03:41:43;9.65;;;4.68;;
73693;SDS011;61997;53.974;11.670;2023-02-28T03:44:17;6.80;;;3.97;;
73693;SDS011;61997;53.974;11.670;2023-02-28T03:46:49;6.95;;;4.00;;
73693;SDS011;61997;53.974;11.670;2023-02-28T03:50:05;8.75;;;4.18;;
73693;SDS011;61997;53.974;11.670;2023-02-28T03:52:12;9.98;;;4.70;;
73693;SDS011;61997;53.974;11.670;2023-02-28T03:54:43;5.68;;;4.15;;
73693;SDS011;61997;53.974;11.670;2023-02-28T04:00:04;8.77;;;4.20;;
73693;SDS011;61997;53.974;11.670;2023-02-28T04:02:31;7.50;;;4.40;;
73693;SDS011;61997;53.974;11.670;2023-02-28T04:04:57;8.35;;;4.20;;
73693;SDS011;61997;53.974;11.670;2023-02-28T04:07:22;7.80;;;4.00;;
73693;SDS011;61997;53.974;11.670;2023-02-28T04:09:48;8.15;;;3.70;;
73693;SDS011;61997;53.974;11.670;2023-02-28T04:12:13;6.30;;;3.33;;
73693;SDS011;61997;53.974;11.670;2023-02-28T04:14:38;5.72;;;3.22;;
73693;SDS011;61997;53.974;11.670;2023-02-28T04:17:04;8.15;;;4.10;;
73693;SDS011;61997;53.974;11.670;2023-02-28T04:19:29;6.13;;;3.30;;
73693;SDS011;61997;53.974;11.670;2023-02-28T04:21:55;6.97;;;3.63;;
73693;SDS011;61997;53.974;11.670;2023-02-28T04:24:21;7.15;;;3.70;;
73693;SDS011;61997;53.974;11.670;2023-02-28T04:26:52;4.70;;;3.30;;
73693;SDS011;61997;53.974;11.670;2023-02-28T04:29:20;8.25;;;3.63;;
73693;SDS011;61997;53.974;11.670;2023-02-28T04:31:47;6.65;;;3.53;;
73693;SDS011;61997;53.974;11.670;2023-02-28T04:34:13;6.20;;;3.40;;
73693;SDS011;61997;53.974;11.670;2023-02-28T04:36:38;6.72;;;3.30;;
73693;SDS011;61997;53.974;11.670;2023-02-28T04:39:04;5.35;;;3.47;;
73693;SDS011;61997;53.974;11.670;2023-02-28T04:41:29;5.35;;;3.20;;
73693;SDS011;61997;53.974;11.670;2023-02-28T04:43:55;7.00;;;3.40;;
73693;SDS011;61997;53.974;11.670;2023-02-28T04:46:21;6.90;;;3.30;;
73693;SDS011;61997;53.974;11.670;2023-02-28T04:48:46;6.75;;;3.00;;
73693;SDS011;61997;53.974;11.670;2023-02-28T04:51:12;6.43;;;3.55;;
73693;SDS011;61997;53.974;11.670;2023-02-28T04:53:39;5.25;;;2.88;;
73693;SDS011;61997;53.974;11.670;2023-02-28T04:56:06;5.38;;;3.10;;
73693;SDS011;61997;53.974;11.670;2023-02-28T05:01:14;5.65;;;2.40;;
73693;SDS011;61997;53.974;11.670;2023-02-28T05:03:43;6.03;;;3.38;;
73693;SDS011;61997;53.974;11.670;2023-02-28T05:06:09;5.18;;;2.97;;
73693;SDS011;61997;53.974;11.670;2023-02-28T05:08:35;5.78;;;2.63;;
73693;SDS011;61997;53.974;11.670;2023-02-28T05:11:00;4.25;;;2.58;;
73693;SDS011;61997;53.974;11.670;2023-02-28T05:13:26;5.78;;;2.78;;
73693;SDS011;61997;53.974;11.670;2023-02-28T05:15:52;5.75;;;3.15;;
73693;SDS011;61997;53.974;11.670;2023-02-28T05:18:17;5.10;;;3.30;;
73693;SDS011;61997;53.974;11.670;2023-02-28T05:20:43;5.25;;;2.67;;
73693;SDS011;61997;53.974;11.670;2023-02-28T05:23:10;7.18;;;3.17;;
73693;SDS011;61997;53.974;11.670;2023-02-28T05:25:36;4.85;;;2.50;;
73693;SDS011;61997;53.974;11.670;2023-02-28T05:28:02;5.53;;;2.78;;
73693;SDS011;61997;53.974;11.670;2023-02-28T05:30:28;5.60;;;2.72;;
73693;SDS011;61997;53.974;11.670;2023-02-28T05:32:53;4.55;;;2.60;;
73693;SDS011;61997;53.974;11.670;2023-02-28T05:35:18;5.18;;;2.22;;
73693;SDS011;61997;53.974;11.670;2023-02-28T05:37:44;6.13;;;2.63;;
73693;SDS011;61997;53.974;11.670;2023-02-28T05:40:10;5.90;;;2.60;;
73693;SDS011;61997;53.974;11.670;2023-02-28T05:42:36;5.70;;;2.60;;
73693;SDS011;61997;53.974;11.670;2023-02-28T05:45:05;4.38;;;2.60;;
73693;SDS011;61997;53.974;11.670;2023-02-28T05:47:31;6.40;;;2.85;;
73693;SDS011;61997;53.974;11.670;2023-02-28T05:49:57;3.97;;;2.30;;
73693;SDS011;61997;53.974;11.670;2023-02-28T05:52:23;4.38;;;2.35;;
73693;SDS011;61997;53.974;11.670;2023-02-28T05:54:48;3.97;;;2.38;;
73693;SDS011;61997;53.974;11.670;2023-02-28T05:57:14;5.32;;;2.67;;
73693;SDS011;61997;53.974;11.670;2023-02-28T05:59:40;4.15;;;2.03;;
73693;SDS011;61997;53.974;11.670;2023-02-28T06:02:06;5.70;;;2.50;;
73693;SDS011;61997;53.974;11.670;2023-02-28T06:04:34;4.03;;;2.60;;
73693;SDS011;61997;53.974;11.670;2023-02-28T06:06:59;4.32;;;2.38;;
73693;SDS011;61997;53.974;11.670;2023-02-28T06:09:25;4.63;;;2.50;;
73693;SDS011;61997;53.974;11.670;2023-02-28T06:11:50;4.40;;;2.30;;
73693;SDS011;61997;53.974;11.670;2023-02-28T06:14:16;4.03;;;2.30;;
73693;SDS011;61997;53.974;11.670;2023-02-28T06:16:43;3.85;;;1.98;;
73693;SDS011;61997;53.974;11.670;2023-02-28T06:19:08;4.85;;;2.20;;
73693;SDS011;61997;53.974;11.670;2023-02-28T06:21:34;5.70;;;2.67;;
73693;SDS011;61997;53.974;11.670;2023-02-28T06:24:00;6.32;;;3.15;;
73693;SDS011;61997;53.974;11.670;2023-02-28T06:26:25;3.88;;;2.40;;
73693;SDS011;61997;53.974;11.670;2023-02-28T06:28:51;4.32;;;2.25;;
73693;SDS011;61997;53.974;11.670;2023-02-28T06:31:17;5.00;;;2.40;;
73693;SDS011;61997;53.974;11.670;2023-02-28T06:33:43;5.03;;;2.63;;
73693;SDS011;61997;53.974;11.670;2023-02-28T06:36:10;3.63;;;2.30;;
73693;SDS011;61997;53.974;11.670;2023-02-28T06:38:37;5.95;;;2.28;;
73693;SDS011;61997;53.974;11.670;2023-02-28T06:41:03;5.03;;;2.15;;
73693;SDS011;61997;53.974;11.670;2023-02-28T06:43:30;3.38;;;2.40;;
73693;SDS011;61997;53.974;11.670;2023-02-28T06:45:58;5.28;;;2.15;;
73693;SDS011;61997;53.974;11.670;2023-02-28T06:48:25;3.38;;;2.30;;
73693;SDS011;61997;53.974;11.670;2023-02-28T06:50:52;5.60;;;2.38;;
73693;SDS011;61997;53.974;11.670;2023-02-28T06:53:17;2.33;;;1.80;;
73693;SDS011;61997;53.974;11.670;2023-02-28T06:55:42;4.57;;;2.05;;
73693;SDS011;61997;53.974;11.670;2023-02-28T06:58:08;5.40;;;2.15;;
73693;SDS011;61997;53.974;11.670;2023-02-28T07:00:40;5.88;;;2.40;;
73693;SDS011;61997;53.974;11.670;2023-02-28T07:03:11;4.30;;;1.90;;
73693;SDS011;61997;53.974;11.670;2023-02-28T07:05:37;5.13;;;2.03;;
73693;SDS011;61997;53.974;11.670;2023-02-28T07:08:04;5.00;;;2.17;;
73693;SDS011;61997;53.974;11.670;2023-02-28T07:10:31;5.25;;;1.95;;
73693;SDS011;61997;53.974;11.670;2023-02-28T07:12:57;4.30;;;2.03;;
73693;SDS011;61997;53.974;11.670;2023-02-28T07:15:24;4.57;;;1.92;;
73693;SDS011;61997;53.974;11.670;2023-02-28T07:17:49;5.05;;;2.65;;
73693;SDS011;61997;53.974;11.670;2023-02-28T07:20:15;4.47;;;2.22;;
73693;SDS011;61997;53.974;11.670;2023-02-28T07:22:41;5.60;;;2.05;;
73693;SDS011;61997;53.974;11.670;2023-02-28T07:25:06;4.55;;;1.83;;
73693;SDS011;61997;53.974;11.670;2023-02-28T07:27:32;5.88;;;2.97;;
73693;SDS011;61997;53.974;11.670;2023-02-28T07:29:59;4.32;;;1.90;;
73693;SDS011;61997;53.974;11.670;2023-02-28T07:32:26;4.43;;;1.92;;
73693;SDS011;61997;53.974;11.670;2023-02-28T07:34:52;4.63;;;1.80;;
73693;SDS011;61997;53.974;11.670;2023-02-28T07:37:18;3.42;;;1.85;;
73693;SDS011;61997;53.974;11.670;2023-02-28T07:39:44;4.20;;;1.85;;
73693;SDS011;61997;53.974;11.670;2023-02-28T07:42:09;5.22;;;1.90;;
73693;SDS011;61997;53.974;11.670;2023-02-28T07:44:37;3.60;;;1.80;;
73693;SDS011;61997;53.974;11.670;2023-02-28T07:47:08;3.35;;;1.85;;
73693;SDS011;61997;53.974;11.670;2023-02-28T07:49:37;2.60;;;1.52;;
73693;SDS011;61997;53.974;11.670;2023-02-28T07:52:03;4.88;;;1.85;;
73693;SDS011;61997;53.974;11.670;2023-02-28T07:54:29;3.20;;;1.65;;
73693;SDS011;61997;53.974;11.670;2023-02-28T07:56:55;3.03;;;1.92;;
73693;SDS011;61997;53.974;11.670;2023-02-28T07:59:20;4.35;;;2.00;;
73693;SDS011;61997;53.974;11.670;2023-02-28T08:01:46;3.35;;;1.40;;
73693;SDS011;61997;53.974;11.670;2023-02-28T08:04:11;4.85;;;1.80;;
73693;SDS011;61997;53.974;11.670;2023-02-28T08:06:36;2.90;;;1.42;;
73693;SDS011;61997;53.974;11.670;2023-02-28T08:09:02;2.80;;;1.80;;
73693;SDS011;61997;53.974;11.670;2023-02-28T08:11:27;3.58;;;1.65;;
73693;SDS011;61997;53.974;11.670;2023-02-28T08:13:54;3.28;;;1.90;;
73693;SDS011;61997;53.974;11.670;2023-02-28T08:16:19;3.10;;;1.60;;
73693;SDS011;61997;53.974;11.670;2023-02-28T08:18:47;4.55;;;1.55;;
73693;SDS011;61997;53.974;11.670;2023-02-28T08:21:14;3.33;;;1.90;;
73693;SDS011;61997;53.974;11.670;2023-02-28T08:23:39;3.78;;;1.67;;
73693;SDS011;61997;53.974;11.670;2023-02-28T08:26:05;4.15;;;1.65;;
73693;SDS011;61997;53.974;11.670;2023-02-28T08:28:30;4.13;;;2.00;;
73693;SDS011;61997;53.974;11.670;2023-02-28T08:30:56;2.38;;;1.45;;
73693;SDS011;61997;53.974;11.670;2023-02-28T08:33:22;4.55;;;1.58;;
73693;SDS011;61997;53.974;11.670;2023-02-28T08:35:48;3.45;;;1.50;;
73693;SDS011;61997;53.974;11.670;2023-02-28T08:38:13;3.67;;;1.63;;
73693;SDS011;61997;53.974;11.670;2023-02-28T08:40:39;3.13;;;1.70;;
73693;SDS011;61997;53.974;11.670;2023-02-28T08:43:04;2.60;;;1.60;;
73693;SDS011;61997;53.974;11.670;2023-02-28T08:45:29;3.72;;;1.60;;
73693;SDS011;61997;53.974;11.670;2023-02-28T08:47:55;3.15;;;1.40;;
73693;SDS011;61997;53.974;11.670;2023-02-28T08:50:21;3.58;;;1.77;;
73693;SDS011;61997;53.974;11.670;2023-02-28T08:52:47;4.32;;;1.75;;
73693;SDS011;61997;53.974;11.670;2023-02-28T08:55:12;2.67;;;1.58;;
73693;SDS011;61997;53.974;11.670;2023-02-28T08:57:37;3.08;;;1.23;;
73693;SDS011;61997;53.974;11.670;2023-02-28T09:00:03;2.67;;;1.35;;
73693;SDS011;61997;53.974;11.670;2023-02-28T09:02:29;2.88;;;1.48;;
73693;SDS011;61997;53.974;11.670;2023-02-28T09:04:56;3.30;;;1.50;;
73693;SDS011;61997;53.974;11.670;2023-02-28T09:07:22;3.75;;;1.50;;
73693;SDS011;61997;53.974;11.670;2023-02-28T09:09:47;2.28;;;1.52;;
73693;SDS011;61997;53.974;11.670;2023-02-28T09:12:26;3.30;;;1.52;;
73693;SDS011;61997;53.974;11.670;2023-02-28T09:14:52;3.88;;;1.40;;
73693;SDS011;61997;53.974;11.670;2023-02-28T09:17:19;3.88;;;1.65;;
73693;SDS011;61997;53.974;11.670;2023-02-28T09:19:46;3.95;;;1.90;;
73693;SDS011;61997;53.974;11.670;2023-02-28T09:22:12;2.70;;;1.50;;
73693;SDS011;61997;53.974;11.670;2023-02-28T09:24:38;2.65;;;1.33;;
73693;SDS011;61997;53.974;11.670;2023-02-28T09:27:04;3.53;;;1.60;;
73693;SDS011;61997;53.974;11.670;2023-02-28T09:29:30;2.67;;;1.50;;
73693;SDS011;61997;53.974;11.670;2023-02-28T09:31:56;2.72;;;1.75;;
73693;SDS011;61997;53.974;11.670;2023-02-28T09:34:23;1.92;;;1.20;;
73693;SDS011;61997;53.974;11.670;2023-02-28T09:36:50;2.76;;;1.62;;
73693;SDS011;61997;53.974;11.670;2023-02-28T09:39:19;8.70;;;2.10;;
73693;SDS011;61997;53.974;11.670;2023-02-28T09:41:47;2.70;;;1.38;;
73693;SDS011;61997;53.974;11.670;2023-02-28T09:46:57;2.22;;;1.25;;
73693;SDS011;61997;53.974;11.670;2023-02-28T09:49:28;3.47;;;1.65;;
73693;SDS011;61997;53.974;11.670;2023-02-28T09:52:03;3.88;;;1.75;;
73693;SDS011;61997;53.974;11.670;2023-02-28T09:54:31;3.03;;;1.85;;
73693;SDS011;61997;53.974;11.670;2023-02-28T09:57:01;3.95;;;1.67;;
73693;SDS011;61997;53.974;11.670;2023-02-28T10:05:33;3.08;;;1.63;;
73693;SDS011;61997;53.974;11.670;2023-02-28T10:08:45;5.35;;;2.08;;
73693;SDS011;61997;53.974;11.670;2023-02-28T10:10:56;3.58;;;1.85;;
73693;SDS011;61997;53.974;11.670;2023-02-28T10:13:25;2.90;;;1.65;;
73693;SDS011;61997;53.974;11.670;2023-02-28T10:15:56;3.13;;;1.50;;
73693;SDS011;61997;53.974;11.670;2023-02-28T10:18:25;2.83;;;1.73;;
73693;SDS011;61997;53.974;11.670;2023-02-28T10:21:12;2.95;;;1.85;;
73693;SDS011;61997;53.974;11.670;2023-02-28T10:26:13;4.53;;;1.70;;
73693;SDS011;61997;53.974;11.670;2023-02-28T10:28:41;3.75;;;1.83;;
73693;SDS011;61997;53.974;11.670;2023-02-28T10:31:08;4.82;;;2.10;;
73693;SDS011;61997;53.974;11.670;2023-02-28T10:33:36;3.65;;;1.98;;
73693;SDS011;61997;53.974;11.670;2023-02-28T10:36:03;5.63;;;2.58;;
73693;SDS011;61997;53.974;11.670;2023-02-28T10:41:03;3.40;;;2.20;;
73693;SDS011;61997;53.974;11.670;2023-02-28T10:43:29;4.40;;;2.30;;
73693;SDS011;61997;53.974;11.670;2023-02-28T11:04:17;11.57;;;6.43;;
73693;SDS011;61997;53.974;11.670;2023-02-28T11:06:43;12.55;;;7.90;;
73693;SDS011;61997;53.974;11.670;2023-02-28T11:09:23;12.95;;;7.28;;
73693;SDS011;61997;53.974;11.670;2023-02-28T11:14:22;17.85;;;9.73;;
73693;SDS011;61997;53.974;11.670;2023-02-28T11:16:52;17.65;;;9.85;;
73693;SDS011;61997;53.974;11.670;2023-02-28T11:19:26;13.95;;;9.88;;
73693;SDS011;61997;53.974;11.670;2023-02-28T11:21:57;16.15;;;10.00;;
73693;SDS011;61997;53.974;11.670;2023-02-28T11:24:27;21.95;;;12.55;;
73693;SDS011;61997;53.974;11.670;2023-02-28T11:29:27;19.02;;;10.85;;
73693;SDS011;61997;53.974;11.670;2023-02-28T11:32:02;22.88;;;11.25;;
73693;SDS011;61997;53.974;11.670;2023-02-28T11:34:27;21.50;;;11.80;;
73693;SDS011;61997;53.974;11.670;2023-02-28T11:36:56;20.45;;;12.07;;
73693;SDS011;61997;53.974;11.670;2023-02-28T11:39:23;23.70;;;12.45;;
73693;SDS011;61997;53.974;11.670;2023-02-28T11:41:59;23.05;;;12.48;;
73693;SDS011;61997;53.974;11.670;2023-02-28T11:44:41;22.20;;;11.15;;
73693;SDS011;61997;53.974;11.670;2023-02-28T11:50:11;21.60;;;11.45;;
73693;SDS011;61997;53.974;11.670;2023-02-28T11:52:51;20.17;;;11.10;;
73693;SDS011;61997;53.974;11.670;2023-02-28T12:17:12;23.77;;;13.13;;
73693;SDS011;61997;53.974;11.670;2023-02-28T12:28:16;23.15;;;11.68;;
73693;SDS011;61997;53.974;11.670;2023-02-28T12:31:08;20.75;;;13.05;;
73693;SDS011;61997;53.974;11.670;2023-02-28T12:33:41;20.45;;;11.98;;
73693;SDS011;61997;53.974;11.670;2023-02-28T12:36:11;23.52;;;12.40;;
73693;SDS011;61997;53.974;11.670;2023-02-28T12:39:02;23.92;;;12.40;;
73693;SDS011;61997;53.974;11.670;2023-02-28T12:44:18;22.88;;;12.20;;
73693;SDS011;61997;53.974;11.670;2023-02-28T12:46:48;20.23;;;11.45;;
73693;SDS011;61997;53.974;11.670;2023-02-28T12:51:43;20.17;;;11.15;;
73693;SDS011;61997;53.974;11.670;2023-02-28T12:54:12;19.60;;;11.88;;
73693;SDS011;61997;53.974;11.670;2023-02-28T12:59:13;21.38;;;12.07;;
73693;SDS011;61997;53.974;11.670;2023-02-28T13:01:57;19.85;;;11.05;;
73693;SDS011;61997;53.974;11.670;2023-02-28T13:04:32;22.00;;;12.10;;
73693;SDS011;61997;53.974;11.670;2023-02-28T13:09:40;20.98;;;10.68;;
73693;SDS011;61997;53.974;11.670;2023-02-28T13:12:13;23.75;;;12.68;;
73693;SDS011;61997;53.974;11.670;2023-02-28T13:14:39;24.35;;;13.05;;
73693;SDS011;61997;53.974;11.670;2023-02-28T13:24:54;19.60;;;10.85;;
73693;SDS011;61997;53.974;11.670;2023-02-28T13:29:51;21.85;;;11.30;;
73693;SDS011;61997;53.974;11.670;2023-02-28T13:32:38;20.70;;;10.20;;
73693;SDS011;61997;53.974;11.670;2023-02-28T13:39:58;18.00;;;10.13;;
73693;SDS011;61997;53.974;11.670;2023-02-28T13:47:31;16.80;;;11.00;;
73693;SDS011;61997;53.974;11.670;2023-02-28T13:58:36;18.33;;;10.20;;
73693;SDS011;61997;53.974;11.670;2023-02-28T14:06:22;14.88;;;8.90;;
73693;SDS011;61997;53.974;11.670;2023-02-28T14:11:28;16.98;;;8.75;;
73693;SDS011;61997;53.974;11.670;2023-02-28T14:13:57;14.00;;;9.30;;
73693;SDS011;61997;53.974;11.670;2023-02-28T14:16:24;17.35;;;9.00;;
73693;SDS011;61997;53.974;11.670;2023-02-28T14:18:59;13.20;;;8.25;;
73693;SDS011;61997;53.974;11.670;2023-02-28T14:21:36;16.23;;;10.05;;
73693;SDS011;61997;53.974;11.670;2023-02-28T14:31:29;15.40;;;8.57;;
73693;SDS011;61997;53.974;11.670;2023-02-28T14:36:44;14.05;;;8.93;;
73693;SDS011;61997;53.974;11.670;2023-02-28T14:41:43;14.85;;;8.93;;
73693;SDS011;61997;53.974;11.670;2023-02-28T14:44:16;15.15;;;8.35;;
73693;SDS011;61997;53.974;11.670;2023-02-28T14:46:44;14.93;;;8.30;;
73693;SDS011;61997;53.974;11.670;2023-02-28T14:52:05;14.63;;;7.93;;
73693;SDS011;61997;53.974;11.670;2023-02-28T14:54:31;14.20;;;7.50;;
73693;SDS011;61997;53.974;11.670;2023-02-28T14:56:57;16.20;;;7.75;;
73693;SDS011;61997;53.974;11.670;2023-02-28T14:59:30;14.73;;;8.00;;
73693;SDS011;61997;53.974;11.670;2023-02-28T15:04:55;13.30;;;7.88;;
73693;SDS011;61997;53.974;11.670;2023-02-28T15:07:25;15.50;;;8.18;;
73693;SDS011;61997;53.974;11.670;2023-02-28T15:12:51;11.90;;;8.10;;
73693;SDS011;61997;53.974;11.670;2023-02-28T15:15:19;12.02;;;7.22;;
73693;SDS011;61997;53.974;11.670;2023-02-28T15:17:46;13.05;;;7.25;;
73693;SDS011;61997;53.974;11.670;2023-02-28T15:20:18;14.93;;;7.20;;
73693;SDS011;61997;53.974;11.670;2023-02-28T15:22:44;13.20;;;7.05;;
73693;SDS011;61997;53.974;11.670;2023-02-28T15:25:10;12.73;;;7.53;;
73693;SDS011;61997;53.974;11.670;2023-02-28T15:27:42;12.30;;;7.05;;
73693;SDS011;61997;53.974;11.670;2023-02-28T15:30:16;15.68;;;7.90;;
73693;SDS011;61997;53.974;11.670;2023-02-28T15:32:45;12.52;;;7.32;;
73693;SDS011;61997;53.974;11.670;2023-02-28T15:35:29;14.02;;;7.30;;
73693;SDS011;61997;53.974;11.670;2023-02-28T15:38:17;11.57;;;6.97;;
73693;SDS011;61997;53.974;11.670;2023-02-28T15:40:55;11.85;;;6.90;;
73693;SDS011;61997;53.974;11.670;2023-02-28T15:43:26;13.10;;;6.88;;
73693;SDS011;61997;53.974;11.670;2023-02-28T15:48:48;12.68;;;6.50;;
73693;SDS011;61997;53.974;11.670;2023-02-28T15:53:51;10.40;;;6.35;;
73693;SDS011;61997;53.974;11.670;2023-02-28T15:56:25;10.27;;;6.53;;
73693;SDS011;61997;53.974;11.670;2023-02-28T15:58:56;12.60;;;6.70;;
73693;SDS011;61997;53.974;11.670;2023-02-28T16:01:34;12.00;;;6.78;;
73693;SDS011;61997;53.974;11.670;2023-02-28T16:04:03;11.98;;;7.03;;
73693;SDS011;61997;53.974;11.670;2023-02-28T16:06:39;10.50;;;6.53;;
73693;SDS011;61997;53.974;11.670;2023-02-28T16:09:14;12.68;;;6.28;;
73693;SDS011;61997;53.974;11.670;2023-02-28T16:11:42;11.05;;;6.03;;
73693;SDS011;61997;53.974;11.670;2023-02-28T16:14:43;9.57;;;6.03;;
73693;SDS011;61997;53.974;11.670;2023-02-28T16:17:04;12.00;;;6.90;;
73693;SDS011;61997;53.974;11.670;2023-02-28T16:19:39;12.63;;;6.80;;
73693;SDS011;61997;53.974;11.670;2023-02-28T16:22:05;8.60;;;5.80;;
73693;SDS011;61997;53.974;11.670;2023-02-28T16:24:30;11.73;;;6.65;;
73693;SDS011;61997;53.974;11.670;2023-02-28T16:26:55;12.48;;;6.32;;
73693;SDS011;61997;53.974;11.670;2023-02-28T16:29:26;9.50;;;5.80;;
73693;SDS011;61997;53.974;11.670;2023-02-28T16:31:53;13.68;;;6.25;;
73693;SDS011;61997;53.974;11.670;2023-02-28T16:34:19;10.05;;;5.97;;
73693;SDS011;61997;53.974;11.670;2023-02-28T16:36:48;11.82;;;6.03;;
73693;SDS011;61997;53.974;11.670;2023-02-28T16:39:14;11.63;;;6.40;;
73693;SDS011;61997;53.974;11.670;2023-02-28T16:41:41;11.32;;;6.25;;
73693;SDS011;61997;53.974;11.670;2023-02-28T16:44:10;9.88;;;5.38;;
73693;SDS011;61997;53.974;11.670;2023-02-28T16:46:38;10.75;;;5.57;;
73693;SDS011;61997;53.974;11.670;2023-02-28T16:49:03;11.05;;;6.25;;
73693;SDS011;61997;53.974;11.670;2023-02-28T16:51:29;10.73;;;5.57;;
73693;SDS011;61997;53.974;11.670;2023-02-28T16:53:54;11.23;;;5.30;;
73693;SDS011;61997;53.974;11.670;2023-02-28T16:56:21;12.45;;;5.75;;
73693;SDS011;61997;53.974;11.670;2023-02-28T16:58:48;9.07;;;5.55;;
73693;SDS011;61997;53.974;11.670;2023-02-28T17:01:14;10.77;;;5.65;;
73693;SDS011;61997;53.974;11.670;2023-02-28T17:03:40;9.63;;;5.78;;
73693;SDS011;61997;53.974;11.670;2023-02-28T17:06:06;10.07;;;5.90;;
73693;SDS011;61997;53.974;11.670;2023-02-28T17:08:37;9.23;;;5.80;;
73693;SDS011;61997;53.974;11.670;2023-02-28T17:11:03;11.13;;;5.75;;
73693;SDS011;61997;53.974;11.670;2023-02-28T17:13:29;11.32;;;6.20;;
73693;SDS011;61997;53.974;11.670;2023-02-28T17:15:54;11.35;;;6.13;;
73693;SDS011;61997;53.974;11.670;2023-02-28T17:18:19;11.98;;;6.05;;
73693;SDS011;61997;53.974;11.670;2023-02-28T17:20:46;10.15;;;5.95;;
73693;SDS011;61997;53.974;11.670;2023-02-28T17:23:12;10.07;;;5.45;;
73693;SDS011;61997;53.974;11.670;2023-02-28T17:25:37;14.00;;;6.53;;
73693;SDS011;61997;53.974;11.670;2023-02-28T17:28:03;9.82;;;6.05;;
73693;SDS011;61997;53.974;11.670;2023-02-28T17:30:28;10.18;;;6.43;;
73693;SDS011;61997;53.974;11.670;2023-02-28T17:32:54;12.20;;;6.32;;
73693;SDS011;61997;53.974;11.670;2023-02-28T17:35:21;13.50;;;6.95;;
73693;SDS011;61997;53.974;11.670;2023-02-28T17:37:47;11.10;;;6.95;;
73693;SDS011;61997;53.974;11.670;2023-02-28T17:40:16;13.10;;;7.20;;
73693;SDS011;61997;53.974;11.670;2023-02-28T17:42:45;11.80;;;5.70;;
73693;SDS011;61997;53.974;11.670;2023-02-28T17:45:11;13.73;;;6.75;;
73693;SDS011;61997;53.974;11.670;2023-02-28T17:47:36;10.23;;;5.97;;